createdAt,value
2019-06-18T00:01:01.143Z,99.90
2019-06-18T00:03:50.413Z,99.90
2019-06-18T00:06:21.363Z,99.90
2019-06-18T00:08:50.867Z,99.90
2019-06-18T00:11:21.236Z,99.90
2019-06-18T00:13:50.666Z,99.90
2019-06-18T00:16:20.137Z,99.90
2019-06-18T00:18:51.339Z,99.90
2019-06-18T00:21:41.595Z,99.90
2019-06-18T00:24:31.004Z,99.90
2019-06-18T00:27:21.407Z,99.90
2019-06-18T00:29:51.056Z,99.90
2019-06-18T00:32:21.648Z,99.90
2019-06-18T00:34:51.207Z,99.90
2019-06-18T00:37:21.067Z,99.90
2019-06-18T00:39:50.466Z,99.90
2019-06-18T00:42:19.979Z,99.90
2019-06-18T00:44:49.198Z,99.90
2019-06-18T00:47:18.440Z,99.90
2019-06-18T00:49:47.676Z,99.90
2019-06-18T00:52:17.501Z,99.90
2019-06-18T00:55:07.322Z,99.90
2019-06-18T00:57:36.866Z,99.90
2019-06-18T01:00:07.972Z,99.90
2019-06-18T01:02:38.355Z,99.90
2019-06-18T01:05:08.658Z,99.90
2019-06-18T01:07:37.912Z,99.90
2019-06-18T01:10:08.016Z,99.90
2019-06-18T01:12:38.029Z,99.90
2019-06-18T01:15:08.008Z,99.90
2019-06-18T01:17:37.361Z,99.90
2019-06-18T01:20:07.806Z,99.90
2019-06-18T01:22:37.578Z,99.90
2019-06-18T01:25:07.342Z,99.90
2019-06-18T01:27:55.958Z,99.90
2019-06-18T01:30:25.291Z,99.90
2019-06-18T01:32:54.701Z,99.90
2019-06-18T01:35:23.979Z,99.90
2019-06-18T01:37:53.272Z,99.90
2019-06-18T01:40:23.041Z,99.90
2019-06-18T01:42:52.691Z,99.90
2019-06-18T01:45:22.638Z,99.90
2019-06-18T01:47:53.818Z,99.90
2019-06-18T01:50:23.796Z,99.90
2019-06-18T01:52:53.795Z,99.90
2019-06-18T01:55:23.297Z,99.90
2019-06-18T01:57:52.926Z,99.90
2019-06-18T02:00:23.457Z,99.90
2019-06-18T02:02:53.970Z,99.90
2019-06-18T02:05:23.637Z,99.90
2019-06-18T02:07:53.468Z,99.90
2019-06-18T02:10:24.005Z,99.90
2019-06-18T02:12:53.438Z,99.90
2019-06-18T02:15:23.356Z,99.90
2019-06-18T02:17:53.391Z,99.90
2019-06-18T02:20:26.012Z,99.90
2019-06-18T02:22:55.251Z,99.90
2019-06-18T02:25:24.761Z,99.90
2019-06-18T02:27:53.989Z,99.90
2019-06-18T02:30:24.373Z,99.90
2019-06-18T02:33:14.626Z,99.90
2019-06-18T02:35:44.231Z,99.90
2019-06-18T02:38:13.645Z,99.90
2019-06-18T02:40:43.150Z,99.90
2019-06-18T02:43:13.375Z,99.90
2019-06-18T02:45:43.495Z,99.90
2019-06-18T02:48:13.671Z,99.90
2019-06-18T02:51:02.381Z,99.90
2019-06-18T02:53:32.820Z,99.90
2019-06-18T02:56:03.017Z,99.90
2019-06-18T02:58:32.963Z,99.90
2019-06-18T03:01:12.552Z,99.90
2019-06-18T03:03:42.759Z,99.90
2019-06-18T03:06:32.433Z,99.90
2019-06-18T03:09:02.596Z,99.90
2019-06-18T03:11:33.087Z,99.90
2019-06-18T03:14:05.315Z,99.90
2019-06-18T03:16:33.668Z,99.90
2019-06-18T03:19:02.964Z,99.90
2019-06-18T03:21:33.022Z,99.90
2019-06-18T03:24:02.716Z,99.90
2019-06-18T03:26:32.974Z,99.90
2019-06-18T03:29:02.703Z,99.90
2019-06-18T03:31:34.973Z,99.90
2019-06-18T03:34:25.087Z,99.90
2019-06-18T03:36:53.350Z,99.90
2019-06-18T03:39:22.893Z,99.90
2019-06-18T03:41:53.194Z,99.90
2019-06-18T03:44:22.676Z,99.90
2019-06-18T03:46:53.173Z,99.90
2019-06-18T03:49:22.803Z,99.90
2019-06-18T03:51:53.103Z,99.90
2019-06-18T03:54:23.265Z,99.90
2019-06-18T03:56:52.835Z,99.90
2019-06-18T03:59:22.411Z,99.90
2019-06-18T04:01:53.097Z,99.90
2019-06-18T04:04:23.239Z,99.90
2019-06-18T04:06:52.721Z,99.90
2019-06-18T04:09:22.594Z,99.90
2019-06-18T04:11:52.449Z,99.90
2019-06-18T04:14:23.604Z,99.90
2019-06-18T04:16:52.891Z,99.90
2019-06-18T04:19:22.640Z,99.90
2019-06-18T04:21:52.764Z,99.90
2019-06-18T04:24:22.754Z,99.90
2019-06-18T04:26:52.716Z,99.90
2019-06-18T04:29:22.594Z,99.90
2019-06-18T04:31:53.463Z,99.90
2019-06-18T04:34:23.409Z,99.90
2019-06-18T04:36:53.349Z,99.90
2019-06-18T04:39:23.730Z,99.90
2019-06-18T04:41:53.060Z,99.90
2019-06-18T04:44:22.742Z,99.90
2019-06-18T04:46:53.196Z,99.90
2019-06-18T04:49:23.055Z,99.90
2019-06-18T04:51:54.079Z,99.90
2019-06-18T04:54:23.875Z,99.90
2019-06-18T04:56:53.428Z,99.90
2019-06-18T04:59:23.389Z,99.90
2019-06-18T05:01:57.497Z,99.90
2019-06-18T05:04:29.065Z,99.90
2019-06-18T05:06:58.340Z,99.90
2019-06-18T05:09:27.785Z,99.90
2019-06-18T05:11:57.044Z,99.90
2019-06-18T05:14:26.423Z,99.90
2019-06-18T05:16:55.758Z,99.90
2019-06-18T05:19:25.063Z,99.90
2019-06-18T05:21:54.363Z,99.90
2019-06-18T05:24:23.706Z,99.90
2019-06-18T05:26:53.677Z,99.90
2019-06-18T05:29:23.562Z,99.90
2019-06-18T05:31:53.053Z,99.90
2019-06-18T05:34:22.513Z,99.90
2019-06-18T05:36:53.056Z,99.90
2019-06-18T05:39:22.792Z,99.90
2019-06-18T05:41:53.337Z,99.90
2019-06-18T05:44:23.324Z,99.90
2019-06-18T05:46:53.811Z,99.90
2019-06-18T05:49:23.459Z,99.90
2019-06-18T05:51:53.191Z,99.90
2019-06-18T05:54:23.151Z,99.90
2019-06-18T05:57:12.565Z,99.90
2019-06-18T05:59:42.478Z,99.90
2019-06-18T06:02:13.850Z,99.90
2019-06-18T06:04:43.058Z,99.90
2019-06-18T06:07:15.926Z,99.90
2019-06-18T06:09:43.424Z,99.90
2019-06-18T06:12:13.283Z,99.90
2019-06-18T06:14:43.450Z,99.90
2019-06-18T06:17:14.311Z,99.90
2019-06-18T06:19:43.814Z,99.90
2019-06-18T06:22:13.233Z,99.90
2019-06-18T06:25:03.169Z,99.90
2019-06-18T06:27:33.445Z,99.90
2019-06-18T06:30:04.243Z,99.90
2019-06-18T06:32:33.493Z,99.90
2019-06-18T06:35:03.365Z,99.90
2019-06-18T06:37:53.097Z,99.90
2019-06-18T06:40:23.358Z,99.90
2019-06-18T06:42:53.528Z,99.90
2019-06-18T06:45:23.012Z,99.90
2019-06-18T06:47:52.937Z,99.90
2019-06-18T06:50:22.711Z,99.90
2019-06-18T06:52:52.960Z,99.90
2019-06-18T06:55:24.073Z,99.90
2019-06-18T06:57:53.698Z,99.90
2019-06-18T07:00:24.723Z,99.90
2019-06-18T07:02:54.148Z,99.90
2019-06-18T07:05:23.408Z,99.90
2019-06-18T07:07:53.444Z,99.90
2019-06-18T07:10:23.499Z,99.90
2019-06-18T07:12:53.030Z,99.90
2019-06-18T07:15:23.224Z,99.90
2019-06-18T07:17:53.394Z,99.90
2019-06-18T07:20:23.295Z,99.90
2019-06-18T07:22:53.033Z,99.90
2019-06-18T07:25:24.066Z,99.90
2019-06-18T07:28:13.157Z,99.90
2019-06-18T07:30:43.297Z,99.90
2019-06-18T07:33:12.983Z,99.90
2019-06-18T07:35:43.152Z,99.90
2019-06-18T07:38:12.926Z,99.90
2019-06-18T07:40:43.196Z,99.90
2019-06-18T07:43:13.152Z,99.90
2019-06-18T07:45:43.482Z,99.90
2019-06-18T07:48:25.487Z,99.90
2019-06-18T07:51:06.834Z,99.90
2019-06-18T07:53:36.126Z,99.90
2019-06-18T07:56:05.477Z,99.90
2019-06-18T07:58:34.925Z,99.90
2019-06-18T08:01:04.467Z,99.90
2019-06-18T08:03:53.803Z,99.90
2019-06-18T08:06:23.211Z,99.90
2019-06-18T08:08:53.268Z,99.90
2019-06-18T08:11:22.990Z,99.90
2019-06-18T08:13:53.547Z,99.90
2019-06-18T08:16:23.504Z,99.90
2019-06-18T08:18:53.063Z,99.90
2019-06-18T08:21:23.666Z,99.90
2019-06-18T08:23:53.168Z,99.90
2019-06-18T08:26:23.034Z,99.90
2019-06-18T08:28:53.186Z,99.90
2019-06-18T08:31:23.585Z,99.90
2019-06-18T08:33:53.258Z,99.90
2019-06-18T08:36:43.471Z,99.90
2019-06-18T08:39:13.924Z,99.90
2019-06-18T08:41:43.542Z,99.90
2019-06-18T08:44:13.443Z,99.90
2019-06-18T08:46:43.320Z,99.90
2019-06-18T08:49:13.748Z,99.90
2019-06-18T08:51:43.203Z,99.90
2019-06-18T08:54:13.735Z,99.90
2019-06-18T08:56:43.284Z,99.90
2019-06-18T08:59:13.501Z,99.90
2019-06-18T09:01:43.532Z,99.90
2019-06-18T09:04:13.443Z,99.90
2019-06-18T09:06:42.966Z,99.10
2019-06-18T09:09:12.930Z,98.80
2019-06-18T09:12:03.357Z,98.40
2019-06-18T09:14:33.209Z,97.70
2019-06-18T09:17:03.370Z,98.10
2019-06-18T09:19:33.298Z,96.60
2019-06-18T09:22:04.574Z,95.90
2019-06-18T09:24:33.819Z,92.70
2019-06-18T09:27:03.137Z,89.80
2019-06-18T09:29:33.515Z,86.70
2019-06-18T09:32:03.528Z,85.10
2019-06-18T09:34:33.302Z,79.90
2019-06-18T09:37:04.856Z,79.50
2019-06-18T09:39:34.175Z,75.90
2019-06-18T09:42:03.463Z,73.70
2019-06-18T09:44:33.504Z,74.10
2019-06-18T09:47:03.208Z,72.40
2019-06-18T09:49:33.807Z,72.50
2019-06-18T09:52:03.167Z,70.20
2019-06-18T09:54:32.760Z,69.70
2019-06-18T09:57:03.380Z,69.30
2019-06-18T09:59:34.175Z,69.80
2019-06-18T10:02:04.233Z,72.40
2019-06-18T10:04:33.491Z,69.20
2019-06-18T10:07:02.767Z,68.90
2019-06-18T10:09:33.568Z,69.00
2019-06-18T10:12:05.631Z,71.70
2019-06-18T10:14:34.230Z,70.30
2019-06-18T10:17:04.052Z,71.70
2019-06-18T10:19:33.483Z,67.50
2019-06-18T10:22:03.236Z,69.00
2019-06-18T10:24:33.269Z,67.00
2019-06-18T10:27:02.964Z,68.30
2019-06-18T10:29:49.672Z,66.90
2019-06-18T10:32:03.692Z,65.70
2019-06-18T10:34:33.122Z,66.40
2019-06-18T10:37:04.589Z,66.60
2019-06-18T10:39:33.461Z,66.60
2019-06-18T10:42:03.836Z,67.90
2019-06-18T10:44:33.338Z,70.20
2019-06-18T10:47:02.966Z,72.50
2019-06-18T10:49:34.866Z,69.20
2019-06-18T10:52:03.540Z,70.60
2019-06-18T10:54:32.916Z,69.40
2019-06-18T10:57:02.387Z,67.40
2019-06-18T10:59:33.064Z,67.30
2019-06-18T11:02:04.078Z,66.00
2019-06-18T11:04:33.442Z,65.20
2019-06-18T11:07:03.447Z,66.80
2019-06-18T11:09:33.947Z,66.30
2019-06-18T11:12:04.349Z,67.10
2019-06-18T11:14:33.809Z,66.90
2019-06-18T11:17:03.329Z,68.70
2019-06-18T11:19:32.736Z,68.50
2019-06-18T11:22:10.764Z,71.10
2019-06-18T11:24:35.908Z,72.00
2019-06-18T11:27:05.249Z,71.70
2019-06-18T11:29:34.551Z,69.60
2019-06-18T11:32:03.987Z,68.50
2019-06-18T11:34:33.323Z,68.20
2019-06-18T11:37:21.927Z,67.30
2019-06-18T11:39:52.892Z,67.20
2019-06-18T11:42:23.336Z,66.20
2019-06-18T11:44:53.012Z,63.10
2019-06-18T11:47:23.129Z,61.60
2019-06-18T11:50:04.675Z,60.60
2019-06-18T11:52:34.070Z,63.40
2019-06-18T11:55:03.940Z,63.60
2019-06-18T11:57:34.115Z,65.20
2019-06-18T12:00:07.829Z,64.60
2019-06-18T12:02:37.136Z,64.80
2019-06-18T12:05:08.675Z,63.50
2019-06-18T12:07:37.919Z,60.60
2019-06-18T12:10:08.042Z,60.50
2019-06-18T12:12:37.340Z,62.00
2019-06-18T12:15:07.143Z,59.60
2019-06-18T12:17:36.542Z,60.10
2019-06-18T12:20:09.476Z,61.10
2019-06-18T12:22:47.117Z,65.50
2019-06-18T12:25:13.167Z,67.20
2019-06-18T12:27:42.596Z,68.60
2019-06-18T12:30:13.513Z,69.90
2019-06-18T12:32:54.040Z,70.20
2019-06-18T12:35:14.328Z,71.60
2019-06-18T12:37:43.585Z,70.70
2019-06-18T12:40:13.456Z,71.40
2019-06-18T12:42:43.146Z,72.20
2019-06-18T12:45:12.972Z,72.50
2019-06-18T12:47:43.013Z,74.30
2019-06-18T12:50:13.877Z,75.40
2019-06-18T12:52:43.518Z,75.30
2019-06-18T12:55:13.576Z,76.00
2019-06-18T12:57:43.428Z,75.30
2019-06-18T13:00:16.435Z,76.30
2019-06-18T13:02:45.744Z,75.60
2019-06-18T13:05:15.200Z,75.80
2019-06-18T13:07:44.564Z,77.20
2019-06-18T13:10:34.473Z,77.60
2019-06-18T13:13:06.407Z,77.10
2019-06-18T13:15:35.350Z,77.40
2019-06-18T13:18:04.742Z,76.90
2019-06-18T13:20:34.115Z,76.20
2019-06-18T13:23:19.762Z,76.70
2019-06-18T13:25:36.356Z,77.20
2019-06-18T13:28:05.563Z,75.30
2019-06-18T13:30:35.087Z,75.20
2019-06-18T13:33:04.331Z,76.60
2019-06-18T13:35:34.335Z,78.30
2019-06-18T13:38:05.653Z,76.00
2019-06-18T13:40:34.751Z,76.50
2019-06-18T13:43:23.409Z,78.30
2019-06-18T13:45:53.525Z,76.60
2019-06-18T13:48:23.014Z,78.10
2019-06-18T13:50:52.363Z,77.90
2019-06-18T13:53:41.404Z,80.70
2019-06-18T13:55:52.972Z,81.40
2019-06-18T13:58:22.400Z,79.70
2019-06-18T14:00:53.462Z,79.30
2019-06-18T14:03:23.278Z,78.70
2019-06-18T14:05:53.029Z,79.90
2019-06-18T14:08:22.938Z,80.50
2019-06-18T14:10:52.434Z,77.50
2019-06-18T14:13:23.926Z,75.70
2019-06-18T14:15:53.596Z,79.40
2019-06-18T14:18:22.941Z,75.60
2019-06-18T14:20:53.044Z,75.70
2019-06-18T14:23:23.153Z,76.00
2019-06-18T14:25:59.643Z,77.20
2019-06-18T14:28:23.644Z,76.40
2019-06-18T14:30:53.530Z,78.70
2019-06-18T14:33:25.700Z,81.30
2019-06-18T14:35:54.152Z,81.60
2019-06-18T14:38:23.499Z,82.60
2019-06-18T14:40:53.539Z,82.10
2019-06-18T14:43:27.034Z,84.70
2019-06-18T14:45:56.415Z,84.00
2019-06-18T14:48:25.651Z,85.00
2019-06-18T14:50:54.900Z,85.00
2019-06-18T14:53:27.670Z,86.50
2019-06-18T14:55:55.126Z,88.20
2019-06-18T14:58:24.536Z,88.20
2019-06-18T15:01:13.778Z,90.10
2019-06-18T15:03:43.315Z,89.00
2019-06-18T15:06:12.619Z,89.20
2019-06-18T15:08:43.065Z,88.20
2019-06-18T15:11:13.292Z,89.10
2019-06-18T15:13:43.184Z,85.80
2019-06-18T15:16:13.609Z,83.40
2019-06-18T15:18:43.088Z,83.30
2019-06-18T15:21:13.320Z,83.50
2019-06-18T15:23:43.481Z,83.80
2019-06-18T15:26:14.993Z,83.80
2019-06-18T15:28:44.258Z,84.90
2019-06-18T15:31:13.588Z,83.70
2019-06-18T15:33:42.923Z,85.50
2019-06-18T15:36:12.832Z,84.70
2019-06-18T15:38:43.274Z,84.40
2019-06-18T15:41:13.580Z,84.80
2019-06-18T15:43:43.418Z,85.60
2019-06-18T15:46:12.888Z,86.00
2019-06-18T15:48:43.542Z,87.20
2019-06-18T15:51:13.140Z,87.50
2019-06-18T15:53:43.522Z,87.10
2019-06-18T15:56:13.474Z,86.60
2019-06-18T15:58:42.905Z,86.60
2019-06-18T16:01:16.819Z,87.20
2019-06-18T16:03:43.526Z,86.00
2019-06-18T16:06:14.224Z,85.80
2019-06-18T16:08:43.736Z,85.40
2019-06-18T16:11:33.403Z,86.80
2019-06-18T16:14:04.818Z,86.10
2019-06-18T16:16:34.118Z,86.70
2019-06-18T16:19:03.537Z,87.30
2019-06-18T16:21:33.759Z,85.60
2019-06-18T16:24:03.495Z,85.50
2019-06-18T16:26:32.831Z,86.20
2019-06-18T16:29:04.926Z,85.10
2019-06-18T16:31:34.299Z,85.10
2019-06-18T16:34:03.623Z,82.70
2019-06-18T16:36:32.967Z,82.60
2019-06-18T16:39:03.476Z,84.80
2019-06-18T16:41:32.942Z,85.60
2019-06-18T16:44:02.880Z,86.10
2019-06-18T16:46:33.177Z,85.30
2019-06-18T16:49:03.509Z,86.50
2019-06-18T16:51:34.771Z,87.30
2019-06-18T16:54:04.364Z,85.00
2019-06-18T16:56:53.132Z,84.90
2019-06-18T16:59:22.546Z,86.10
2019-06-18T17:01:52.550Z,83.70
2019-06-18T17:04:22.358Z,83.20
2019-06-18T17:06:53.021Z,83.90
2019-06-18T17:09:23.375Z,84.40
2019-06-18T17:11:53.007Z,85.00
2019-06-18T17:14:23.290Z,86.10
2019-06-18T17:16:53.256Z,86.60
2019-06-18T17:19:23.130Z,86.80
2019-06-18T17:21:52.939Z,88.80
2019-06-18T17:24:42.484Z,89.00
2019-06-18T17:27:12.565Z,89.30
2019-06-18T17:29:45.150Z,89.80
2019-06-18T17:32:14.476Z,88.90
2019-06-18T17:34:43.759Z,89.30
2019-06-18T17:37:13.147Z,90.80
2019-06-18T17:39:43.071Z,90.70
2019-06-18T17:42:12.605Z,90.50
2019-06-18T17:44:43.370Z,90.10
2019-06-18T17:47:13.008Z,88.90
2019-06-18T17:49:42.477Z,89.40
2019-06-18T17:52:11.893Z,88.50
2019-06-18T17:55:02.393Z,89.40
2019-06-18T17:57:36.216Z,89.90
2019-06-18T18:00:07.977Z,89.80
2019-06-18T18:02:37.356Z,90.50
2019-06-18T18:05:08.281Z,90.10
2019-06-18T18:07:56.908Z,90.10
2019-06-18T18:10:26.339Z,91.20
2019-06-18T18:12:55.587Z,91.40
2019-06-18T18:15:25.027Z,92.00
2019-06-18T18:17:54.359Z,91.80
2019-06-18T18:20:23.884Z,92.10
2019-06-18T18:22:56.183Z,92.90
2019-06-18T18:25:25.525Z,92.00
2019-06-18T18:27:54.792Z,93.00
2019-06-18T18:30:24.438Z,93.50
2019-06-18T18:32:53.757Z,93.80
2019-06-18T18:35:23.266Z,94.60
2019-06-18T18:37:52.611Z,95.10
2019-06-18T18:40:22.309Z,95.90
2019-06-18T18:42:53.484Z,96.40
2019-06-18T18:45:22.977Z,97.00
2019-06-18T18:47:52.425Z,98.00
2019-06-18T18:50:23.340Z,98.30
2019-06-18T18:52:53.098Z,98.90
2019-06-18T18:55:23.946Z,99.50
2019-06-18T18:57:53.276Z,99.90
2019-06-18T19:00:39.255Z,99.90
2019-06-18T19:03:08.790Z,99.90
2019-06-18T19:05:38.089Z,99.90
2019-06-18T19:08:07.489Z,99.90
2019-06-18T19:10:36.831Z,99.90
2019-06-18T19:13:06.111Z,99.90
2019-06-18T19:15:35.535Z,99.90
2019-06-18T19:18:16.289Z,99.90
2019-06-18T19:20:35.801Z,99.90
2019-06-18T19:23:05.233Z,99.90
2019-06-18T19:25:34.587Z,99.90
2019-06-18T19:28:03.923Z,99.90
2019-06-18T19:30:33.267Z,99.90
2019-06-18T19:33:02.904Z,99.90
2019-06-18T19:35:32.805Z,99.90
2019-06-18T19:38:02.340Z,99.90
2019-06-18T19:40:33.272Z,99.90
2019-06-18T19:43:02.921Z,99.90
2019-06-18T19:45:32.681Z,99.90
2019-06-18T19:48:03.160Z,99.90
2019-06-18T19:50:33.231Z,99.90
2019-06-18T19:53:03.807Z,99.90
2019-06-18T19:55:33.705Z,99.90
2019-06-18T19:58:03.195Z,99.90
2019-06-18T20:00:52.571Z,99.90
2019-06-18T20:03:22.899Z,99.90
2019-06-18T20:05:52.793Z,99.90
2019-06-18T20:08:23.144Z,99.90
2019-06-18T20:10:54.075Z,99.90
2019-06-18T20:13:23.400Z,99.90
2019-06-18T20:15:53.748Z,99.90
2019-06-18T20:18:23.261Z,99.90
2019-06-18T20:20:53.992Z,99.90
2019-06-18T20:23:23.616Z,99.90
2019-06-18T20:25:53.332Z,99.90
2019-06-18T20:28:23.518Z,99.90
2019-06-18T20:30:53.435Z,99.90
2019-06-18T20:33:22.962Z,99.90
2019-06-18T20:35:53.018Z,99.90
2019-06-18T20:38:42.547Z,99.90
2019-06-18T20:41:13.059Z,99.90
2019-06-18T20:43:43.066Z,99.90
2019-06-18T20:46:12.829Z,99.90
2019-06-18T20:48:43.197Z,99.90
2019-06-18T20:51:13.117Z,99.90
2019-06-18T20:53:43.405Z,99.90
2019-06-18T20:56:32.866Z,99.90
2019-06-18T20:59:03.267Z,99.90
2019-06-18T21:01:32.934Z,99.90
2019-06-18T21:04:02.582Z,99.90
2019-06-18T21:06:32.402Z,99.90
2019-06-18T21:09:02.941Z,99.90
2019-06-18T21:11:32.781Z,99.90
2019-06-18T21:14:02.831Z,99.90
2019-06-18T21:16:32.299Z,99.90
2019-06-18T21:19:22.537Z,99.90
2019-06-18T21:21:53.248Z,99.90
2019-06-18T21:24:23.340Z,99.90
2019-06-18T21:26:53.110Z,99.90
2019-06-18T21:29:22.934Z,99.90
2019-06-18T21:31:53.361Z,99.90
2019-06-18T21:34:42.813Z,99.90
2019-06-18T21:37:18.105Z,99.90
2019-06-18T21:39:47.505Z,99.90
2019-06-18T21:42:16.927Z,99.90
2019-06-18T21:44:46.287Z,99.90
2019-06-18T21:47:15.570Z,99.90
2019-06-18T21:49:44.960Z,99.90
2019-06-18T21:52:14.233Z,99.90
2019-06-18T21:55:03.713Z,99.90
2019-06-18T21:57:33.222Z,99.90
2019-06-18T22:00:03.420Z,99.90
2019-06-18T22:02:33.115Z,99.90
2019-06-18T22:05:04.282Z,99.90
2019-06-18T22:07:33.668Z,99.90
2019-06-18T22:10:03.699Z,99.90
2019-06-18T22:12:33.339Z,99.90
2019-06-18T22:15:09.747Z,99.90
2019-06-18T22:17:58.428Z,99.90
2019-06-18T22:20:29.611Z,99.90
2019-06-18T22:22:58.858Z,99.90
2019-06-18T22:25:28.279Z,99.90
2019-06-18T22:27:57.590Z,99.90
2019-06-18T22:30:26.967Z,99.90
2019-06-18T22:33:18.498Z,99.90
2019-06-18T22:35:47.752Z,99.90
2019-06-18T22:38:17.022Z,99.90
2019-06-18T22:40:47.958Z,99.90
2019-06-18T22:43:17.780Z,99.90
2019-06-18T22:45:47.127Z,99.90
2019-06-18T22:48:16.460Z,99.90
2019-06-18T22:50:45.707Z,99.90
2019-06-18T22:53:15.326Z,99.90
2019-06-18T22:55:44.745Z,99.90
2019-06-18T22:58:14.334Z,99.90
2019-06-18T23:00:43.604Z,99.90
2019-06-18T23:03:33.392Z,99.90
2019-06-18T23:06:03.010Z,99.90
2019-06-18T23:08:52.699Z,99.90
2019-06-18T23:11:22.543Z,99.90
2019-06-18T23:13:54.968Z,99.90
2019-06-18T23:16:24.307Z,99.90
2019-06-18T23:18:53.695Z,99.90
2019-06-18T23:21:23.047Z,99.90
2019-06-18T23:23:52.589Z,99.90
2019-06-18T23:26:23.363Z,99.90
2019-06-18T23:29:13.980Z,99.90
2019-06-18T23:31:43.197Z,99.90
2019-06-18T23:34:13.234Z,99.90
2019-06-18T23:36:42.658Z,99.90
2019-06-18T23:39:13.429Z,99.90
2019-06-18T23:41:43.698Z,99.90
2019-06-18T23:44:13.274Z,99.90
2019-06-18T23:46:42.667Z,99.90
2019-06-18T23:49:13.627Z,99.90
2019-06-18T23:51:46.841Z,99.90
2019-06-18T23:54:16.229Z,99.90
2019-06-18T23:56:45.554Z,99.90
2019-06-18T23:59:22.740Z,99.90
